createdAt,value
2023-11-15T00:01:58.315Z,11.42
2023-11-15T00:04:25.366Z,11.43
2023-11-15T00:06:53.044Z,11.41
2023-11-15T00:09:20.017Z,11.41
2023-11-15T00:11:47.054Z,11.40
2023-11-15T00:14:13.985Z,11.40
2023-11-15T00:16:40.933Z,11.40
2023-11-15T00:19:08.865Z,11.43
2023-11-15T00:21:36.324Z,11.43
2023-11-15T00:24:03.571Z,11.42
2023-11-15T00:26:30.614Z,11.40
2023-11-15T00:28:58.446Z,11.38
2023-11-15T00:31:25.762Z,11.39
2023-11-15T00:33:52.986Z,11.39
2023-11-15T00:36:21.144Z,11.41
2023-11-15T00:38:50.710Z,11.41
2023-11-15T00:41:17.804Z,11.40
2023-11-15T00:43:45.304Z,11.39
2023-11-15T00:46:14.754Z,11.38
2023-11-15T00:48:42.079Z,11.39
2023-11-15T00:51:09.361Z,11.39
2023-11-15T00:53:36.314Z,11.37
2023-11-15T00:56:03.541Z,11.36
2023-11-15T00:58:32.125Z,11.35
2023-11-15T01:01:01.085Z,11.35
2023-11-15T01:03:28.279Z,11.36
2023-11-15T01:05:57.645Z,11.39
2023-11-15T01:08:25.027Z,11.37
2023-11-15T01:10:55.864Z,11.38
2023-11-15T01:13:24.521Z,11.38
2023-11-15T01:15:52.728Z,11.36
2023-11-15T01:18:22.329Z,11.38
2023-11-15T01:20:51.069Z,11.33
2023-11-15T01:23:18.811Z,11.30
2023-11-15T01:25:45.840Z,11.31
2023-11-15T01:28:12.743Z,11.29
2023-11-15T01:30:39.743Z,11.27
2023-11-15T01:33:06.778Z,11.31
2023-11-15T01:35:34.211Z,11.32
2023-11-15T01:38:01.879Z,11.33
2023-11-15T01:40:34.952Z,11.29
2023-11-15T01:43:02.794Z,11.29
2023-11-15T01:45:29.754Z,11.30
2023-11-15T01:47:57.425Z,11.31
2023-11-15T01:50:24.755Z,11.31
2023-11-15T01:52:51.809Z,11.28
2023-11-15T01:55:22.284Z,11.28
2023-11-15T01:57:50.333Z,11.29
2023-11-15T02:00:17.716Z,11.31
2023-11-15T02:02:44.849Z,11.26
2023-11-15T02:05:12.078Z,11.26
2023-11-15T02:07:39.768Z,11.25
2023-11-15T02:10:09.137Z,11.25
2023-11-15T02:12:36.226Z,11.25
2023-11-15T02:15:03.465Z,11.27
2023-11-15T02:17:30.480Z,11.24
2023-11-15T02:19:57.919Z,11.23
2023-11-15T02:22:27.133Z,11.20
2023-11-15T02:24:54.163Z,11.21
2023-11-15T02:27:21.300Z,11.22
2023-11-15T02:29:48.251Z,11.20
2023-11-15T02:32:15.847Z,11.24
2023-11-15T02:34:42.821Z,11.27
2023-11-15T02:37:10.280Z,11.25
2023-11-15T02:39:37.260Z,11.24
2023-11-15T02:42:04.597Z,11.24
2023-11-15T02:44:33.427Z,11.22
2023-11-15T02:47:00.446Z,11.20
2023-11-15T02:49:27.427Z,11.19
2023-11-15T02:51:54.523Z,11.21
2023-11-15T02:54:21.506Z,11.21
2023-11-15T02:56:48.448Z,11.22
2023-11-15T02:59:15.489Z,11.20
2023-11-15T03:01:49.394Z,11.22
2023-11-15T03:04:16.545Z,11.23
2023-11-15T03:06:44.165Z,11.20
2023-11-15T03:09:11.260Z,11.21
2023-11-15T03:11:38.288Z,11.19
2023-11-15T03:14:05.288Z,11.18
2023-11-15T03:16:32.371Z,11.21
2023-11-15T03:18:59.354Z,11.20
2023-11-15T03:21:26.527Z,11.18
2023-11-15T03:23:53.629Z,11.20
2023-11-15T03:26:20.562Z,11.20
2023-11-15T03:28:47.522Z,11.21
2023-11-15T03:31:14.474Z,11.21
2023-11-15T03:33:44.548Z,11.19
2023-11-15T03:36:11.716Z,11.19
2023-11-15T03:38:38.817Z,11.17
2023-11-15T03:41:06.141Z,11.14
2023-11-15T03:43:33.177Z,11.14
2023-11-15T03:46:00.671Z,11.15
2023-11-15T03:48:28.530Z,11.12
2023-11-15T03:50:55.525Z,11.11
2023-11-15T03:53:22.912Z,11.09
2023-11-15T03:55:50.163Z,11.10
2023-11-15T03:58:17.156Z,11.08
2023-11-15T04:00:44.063Z,11.04
2023-11-15T04:03:11.357Z,11.03
2023-11-15T04:05:38.518Z,11.01
2023-11-15T04:08:05.501Z,11.00
2023-11-15T04:10:32.626Z,11.01
2023-11-15T04:12:59.584Z,11.03
2023-11-15T04:15:26.730Z,10.98
2023-11-15T04:17:53.730Z,10.98
2023-11-15T04:20:22.596Z,10.96
2023-11-15T04:22:49.504Z,10.98
2023-11-15T04:25:16.450Z,10.98
2023-11-15T04:27:43.644Z,11.01
2023-11-15T04:30:11.396Z,10.98
2023-11-15T04:32:38.574Z,10.97
2023-11-15T04:35:07.041Z,10.94
2023-11-15T04:37:35.679Z,10.95
2023-11-15T04:40:02.685Z,10.97
2023-11-15T04:42:30.574Z,10.96
2023-11-15T04:44:58.292Z,10.96
2023-11-15T04:47:25.388Z,10.98
2023-11-15T04:49:52.628Z,10.99
2023-11-15T04:52:19.550Z,10.99
2023-11-15T04:54:46.559Z,10.96
2023-11-15T04:57:13.484Z,10.96
2023-11-15T04:59:40.984Z,10.94
2023-11-15T05:02:07.921Z,10.93
2023-11-15T05:04:35.113Z,10.93
2023-11-15T05:07:02.211Z,10.94
2023-11-15T05:09:29.217Z,10.98
2023-11-15T05:11:56.218Z,10.96
2023-11-15T05:14:23.301Z,10.96
2023-11-15T05:16:50.258Z,10.97
2023-11-15T05:19:17.229Z,10.96
2023-11-15T05:21:44.643Z,10.95
2023-11-15T05:24:12.174Z,10.93
2023-11-15T05:26:39.392Z,10.89
2023-11-15T05:29:06.725Z,10.87
2023-11-15T05:31:33.796Z,10.86
2023-11-15T05:34:00.963Z,10.83
2023-11-15T05:36:27.967Z,10.86
2023-11-15T05:38:54.989Z,10.83
2023-11-15T05:41:24.646Z,10.85
2023-11-15T05:43:54.022Z,10.81
2023-11-15T05:46:21.597Z,10.81
2023-11-15T05:48:48.677Z,10.72
2023-11-15T05:51:15.661Z,10.73
2023-11-15T05:53:44.900Z,10.77
2023-11-15T05:56:14.076Z,10.70
2023-11-15T05:58:42.495Z,10.71
2023-11-15T06:01:10.147Z,10.67
2023-11-15T06:03:37.266Z,10.60
2023-11-15T06:06:05.322Z,10.64
2023-11-15T06:08:32.277Z,10.63
2023-11-15T06:10:59.830Z,10.65
2023-11-15T06:13:26.780Z,10.64
2023-11-15T06:15:53.766Z,10.60
2023-11-15T06:18:20.868Z,10.58
2023-11-15T06:20:48.915Z,10.53
2023-11-15T06:23:15.935Z,10.50
2023-11-15T06:25:45.401Z,10.45
2023-11-15T06:28:12.620Z,10.45
2023-11-15T06:30:39.748Z,10.42
2023-11-15T06:33:06.921Z,10.36
2023-11-15T06:35:34.003Z,10.39
2023-11-15T06:38:02.525Z,10.39
2023-11-15T06:40:29.510Z,10.33
2023-11-15T06:42:57.459Z,10.36
2023-11-15T06:45:27.666Z,10.71
2023-11-15T06:47:55.094Z,12.11
2023-11-15T06:50:27.078Z,12.86
2023-11-15T06:52:54.021Z,13.32
2023-11-15T06:55:21.154Z,13.49
2023-11-15T06:57:48.122Z,13.73
2023-11-15T07:00:15.597Z,13.98
2023-11-15T07:02:43.032Z,14.22
2023-11-15T07:05:12.118Z,14.35
2023-11-15T07:07:39.397Z,14.31
2023-11-15T07:10:07.731Z,14.45
2023-11-15T07:12:38.061Z,14.52
2023-11-15T07:15:09.099Z,14.60
2023-11-15T07:17:36.369Z,14.68
2023-11-15T07:20:07.592Z,14.68
2023-11-15T07:22:36.828Z,14.65
2023-11-15T07:25:09.812Z,14.73
2023-11-15T07:27:37.772Z,14.77
2023-11-15T07:30:09.192Z,14.82
2023-11-15T07:32:36.406Z,14.89
2023-11-15T07:35:04.427Z,14.85
2023-11-15T07:37:31.674Z,14.87
2023-11-15T07:39:58.773Z,14.87
2023-11-15T07:42:25.722Z,14.92
2023-11-15T07:44:52.979Z,14.92
2023-11-15T07:47:19.975Z,14.83
2023-11-15T07:49:47.163Z,14.77
2023-11-15T07:52:14.122Z,14.77
2023-11-15T07:54:41.129Z,14.86
2023-11-15T07:57:09.259Z,14.90
2023-11-15T07:59:37.180Z,14.95
2023-11-15T08:02:04.315Z,14.95
2023-11-15T08:04:31.422Z,14.86
2023-11-15T08:06:58.679Z,14.93
2023-11-15T08:09:26.428Z,14.99
2023-11-15T08:11:56.760Z,14.92
2023-11-15T08:14:24.265Z,14.94
2023-11-15T08:16:51.384Z,14.91
2023-11-15T08:19:21.856Z,14.96
2023-11-15T08:21:49.671Z,15.02
2023-11-15T08:24:26.572Z,14.99
2023-11-15T08:26:57.509Z,14.99
2023-11-15T08:29:24.924Z,14.96
2023-11-15T08:31:51.985Z,14.88
2023-11-15T08:34:23.782Z,14.89
2023-11-15T08:36:51.961Z,14.89
2023-11-15T08:39:19.110Z,14.93
2023-11-15T08:41:48.052Z,14.96
2023-11-15T08:44:19.450Z,15.00
2023-11-15T08:46:46.986Z,14.80
2023-11-15T08:49:17.468Z,14.89
2023-11-15T08:51:52.047Z,14.83
2023-11-15T08:54:19.454Z,14.76
2023-11-15T08:56:47.105Z,14.76
2023-11-15T08:59:20.224Z,14.65
2023-11-15T09:01:48.302Z,14.65
2023-11-15T09:04:17.390Z,14.77
2023-11-15T09:06:52.277Z,14.81
2023-11-15T09:09:19.218Z,14.75
2023-11-15T09:11:46.812Z,14.90
2023-11-15T09:14:15.548Z,14.85
2023-11-15T09:16:43.237Z,14.88
2023-11-15T09:19:16.782Z,14.79
2023-11-15T09:21:47.101Z,14.84
2023-11-15T09:24:22.583Z,14.85
2023-11-15T09:26:49.799Z,14.80
2023-11-15T09:29:16.928Z,14.80
2023-11-15T09:31:46.626Z,14.90
2023-11-15T09:34:13.649Z,14.89
2023-11-15T09:36:40.699Z,14.91
2023-11-15T09:39:10.860Z,14.84
2023-11-15T09:41:38.530Z,14.75
2023-11-15T09:44:12.249Z,14.83
2023-11-15T09:46:39.899Z,14.59
2023-11-15T09:49:08.982Z,14.59
2023-11-15T09:51:38.833Z,14.78
2023-11-15T09:54:13.100Z,14.75
2023-11-15T09:56:50.903Z,14.72
2023-11-15T09:59:21.890Z,14.65
2023-11-15T10:01:50.914Z,14.69
2023-11-15T10:04:36.244Z,14.74
2023-11-15T10:07:06.414Z,14.79
2023-11-15T10:09:40.649Z,14.78
2023-11-15T10:12:09.399Z,14.70
2023-11-15T10:14:53.185Z,14.58
2023-11-15T10:17:22.011Z,14.55
2023-11-15T10:19:49.676Z,14.45
2023-11-15T10:22:19.022Z,14.43
2023-11-15T10:25:07.200Z,14.51
2023-11-15T10:27:39.073Z,14.73
2023-11-15T10:30:23.563Z,14.60
2023-11-15T10:32:52.807Z,14.63
2023-11-15T10:35:32.780Z,14.66
2023-11-15T10:38:00.101Z,14.61
2023-11-15T10:40:27.730Z,14.70
2023-11-15T10:42:56.510Z,14.76
2023-11-15T10:45:25.293Z,14.83
2023-11-15T10:48:06.174Z,14.79
2023-11-15T10:50:38.862Z,14.86
2023-11-15T10:53:11.236Z,14.72
2023-11-15T10:55:41.818Z,14.80
2023-11-15T10:58:12.844Z,14.84
2023-11-15T11:00:47.000Z,14.88
2023-11-15T11:03:14.634Z,14.95
2023-11-15T11:06:05.012Z,14.99
2023-11-15T11:08:41.915Z,15.00
2023-11-15T11:11:12.053Z,14.93
2023-11-15T11:13:41.771Z,14.83
2023-11-15T11:16:36.116Z,14.91
2023-11-15T11:19:29.211Z,14.97
2023-11-15T11:22:05.751Z,15.03
2023-11-15T11:25:07.715Z,15.05
2023-11-15T11:27:37.859Z,15.07
2023-11-15T11:30:16.929Z,15.03
2023-11-15T11:32:46.080Z,15.00
2023-11-15T11:35:18.900Z,14.94
2023-11-15T11:37:55.051Z,14.93
2023-11-15T11:40:29.973Z,14.73
2023-11-15T11:43:23.476Z,14.72
2023-11-15T11:45:55.421Z,14.72
2023-11-15T11:48:28.094Z,14.69
2023-11-15T11:51:06.444Z,14.71
2023-11-15T11:53:40.923Z,14.72
2023-11-15T11:56:11.017Z,14.68
2023-11-15T11:58:40.634Z,14.70
2023-11-15T12:01:10.264Z,14.83
2023-11-15T12:03:41.545Z,14.88
2023-11-15T12:06:13.552Z,14.80
2023-11-15T12:08:58.417Z,14.83
2023-11-15T12:11:25.548Z,14.60
2023-11-15T12:13:53.795Z,14.29
2023-11-15T12:16:26.714Z,14.48
2023-11-15T12:19:09.392Z,14.54
2023-11-15T12:21:45.748Z,14.58
2023-11-15T12:24:13.196Z,14.59
2023-11-15T12:26:47.390Z,14.74
2023-11-15T12:29:24.088Z,14.74
2023-11-15T12:31:57.563Z,14.78
2023-11-15T12:34:25.851Z,14.82
2023-11-15T12:36:53.495Z,14.78
2023-11-15T12:39:23.293Z,14.65
2023-11-15T12:41:53.851Z,14.75
2023-11-15T12:44:21.535Z,14.66
2023-11-15T12:46:55.626Z,14.71
2023-11-15T12:49:25.543Z,14.69
2023-11-15T12:51:55.780Z,14.72
2023-11-15T12:54:23.054Z,14.83
2023-11-15T12:57:13.011Z,14.91
2023-11-15T12:59:40.281Z,14.94
2023-11-15T13:02:07.700Z,14.96
2023-11-15T13:04:52.346Z,15.00
2023-11-15T13:07:19.467Z,14.96
2023-11-15T13:09:47.005Z,14.99
2023-11-15T13:12:24.229Z,14.92
2023-11-15T13:14:51.881Z,14.97
2023-11-15T13:17:18.931Z,14.97
2023-11-15T13:19:45.879Z,14.84
2023-11-15T13:22:12.797Z,14.71
2023-11-15T13:24:40.609Z,14.74
2023-11-15T13:27:07.618Z,14.75
2023-11-15T13:29:34.597Z,14.83
2023-11-15T13:32:01.594Z,14.91
2023-11-15T13:34:29.384Z,14.98
2023-11-15T13:36:56.343Z,14.97
2023-11-15T13:39:23.284Z,14.94
2023-11-15T13:41:50.334Z,15.00
2023-11-15T13:44:17.391Z,15.06
2023-11-15T13:46:46.354Z,15.01
2023-11-15T13:49:15.390Z,15.06
2023-11-15T13:51:42.356Z,15.04
2023-11-15T13:54:10.080Z,15.05
2023-11-15T13:56:38.080Z,15.04
2023-11-15T13:59:07.480Z,15.05
2023-11-15T14:01:35.032Z,14.93
2023-11-15T14:04:02.059Z,14.95
2023-11-15T14:06:29.139Z,15.01
2023-11-15T14:09:00.332Z,14.81
2023-11-15T14:11:30.444Z,14.62
2023-11-15T14:13:58.312Z,14.83
2023-11-15T14:16:25.710Z,14.92
2023-11-15T14:18:53.262Z,15.02
2023-11-15T14:21:21.278Z,15.05
2023-11-15T14:23:48.499Z,15.11
2023-11-15T14:26:15.906Z,15.12
2023-11-15T14:28:46.999Z,15.12
2023-11-15T14:31:15.047Z,15.22
2023-11-15T14:33:42.135Z,15.12
2023-11-15T14:36:11.156Z,15.13
2023-11-15T14:38:38.463Z,15.19
2023-11-15T14:41:05.981Z,15.18
2023-11-15T14:43:33.212Z,15.11
2023-11-15T14:46:00.219Z,15.07
2023-11-15T14:48:27.989Z,15.12
2023-11-15T14:50:55.417Z,15.01
2023-11-15T14:53:22.376Z,15.04
2023-11-15T14:55:49.403Z,15.15
2023-11-15T14:58:17.886Z,15.04
2023-11-15T15:00:44.933Z,15.05
2023-11-15T15:03:13.018Z,15.00
2023-11-15T15:05:41.375Z,14.93
2023-11-15T15:08:14.766Z,15.01
2023-11-15T15:10:42.712Z,15.17
2023-11-15T15:13:10.367Z,15.12
2023-11-15T15:15:38.758Z,15.13
2023-11-15T15:18:10.839Z,15.10
2023-11-15T15:20:40.906Z,15.09
2023-11-15T15:23:09.519Z,15.12
2023-11-15T15:25:38.613Z,15.12
2023-11-15T15:28:06.147Z,15.18
2023-11-15T15:30:35.829Z,15.30
2023-11-15T15:33:03.651Z,15.25
2023-11-15T15:35:31.919Z,15.36
2023-11-15T15:37:59.757Z,15.42
2023-11-15T15:40:29.589Z,15.49
2023-11-15T15:42:56.991Z,15.43
2023-11-15T15:45:27.632Z,15.40
2023-11-15T15:47:56.400Z,15.41
2023-11-15T15:50:23.572Z,15.45
2023-11-15T15:52:50.517Z,15.48
2023-11-15T15:55:17.539Z,15.46
2023-11-15T15:57:44.540Z,15.44
2023-11-15T16:00:13.426Z,14.20
2023-11-15T16:02:40.609Z,11.66
2023-11-15T16:05:11.757Z,11.49
2023-11-15T16:07:38.846Z,11.34
2023-11-15T16:10:06.744Z,11.26
2023-11-15T16:12:35.623Z,11.25
2023-11-15T16:15:07.852Z,11.19
2023-11-15T16:17:38.035Z,11.14
2023-11-15T16:20:06.159Z,11.10
2023-11-15T16:22:33.290Z,11.12
2023-11-15T16:25:00.263Z,11.12
2023-11-15T16:27:34.378Z,11.09
2023-11-15T16:30:10.703Z,10.97
2023-11-15T16:32:37.823Z,10.97
2023-11-15T16:35:06.721Z,10.97
2023-11-15T16:37:36.861Z,10.92
2023-11-15T16:40:06.582Z,10.93
2023-11-15T16:42:34.383Z,10.93
2023-11-15T16:45:02.669Z,10.90
2023-11-15T16:47:30.009Z,10.83
2023-11-15T16:49:58.921Z,10.82
2023-11-15T16:52:26.135Z,10.78
2023-11-15T16:54:53.386Z,10.77
2023-11-15T16:57:20.590Z,10.68
2023-11-15T16:59:50.263Z,10.67
2023-11-15T17:02:17.555Z,10.65
2023-11-15T17:04:44.513Z,10.66
2023-11-15T17:07:11.904Z,10.69
2023-11-15T17:09:38.866Z,10.66
2023-11-15T17:12:06.712Z,10.51
2023-11-15T17:14:34.396Z,10.59
2023-11-15T17:17:01.709Z,10.60
2023-11-15T17:19:28.868Z,10.57
2023-11-15T17:21:58.787Z,10.53
2023-11-15T17:24:26.988Z,10.51
2023-11-15T17:26:54.323Z,10.53
2023-11-15T17:29:21.503Z,10.48
2023-11-15T17:31:48.673Z,10.53
2023-11-15T17:34:15.714Z,10.51
2023-11-15T17:36:42.791Z,10.44
2023-11-15T17:39:13.422Z,10.44
2023-11-15T17:41:41.394Z,10.41
2023-11-15T17:44:12.822Z,10.39
2023-11-15T17:46:43.624Z,10.37
2023-11-15T17:49:12.151Z,10.26
2023-11-15T17:51:39.657Z,10.29
2023-11-15T17:54:12.419Z,10.21
2023-11-15T17:56:39.491Z,10.21
2023-11-15T17:59:06.756Z,10.25
2023-11-15T18:01:34.804Z,10.26
2023-11-15T18:04:03.250Z,10.23
2023-11-15T18:06:30.353Z,10.17
2023-11-15T18:08:57.354Z,10.21
2023-11-15T18:11:24.382Z,10.24
2023-11-15T18:13:51.281Z,10.21
2023-11-15T18:16:18.464Z,10.23
2023-11-15T18:18:45.455Z,10.20
2023-11-15T18:21:12.650Z,10.22
2023-11-15T18:23:39.644Z,10.20
2023-11-15T18:26:06.610Z,10.18
2023-11-15T18:28:34.819Z,10.17
2023-11-15T18:31:07.300Z,10.15
2023-11-15T18:36:01.939Z,10.10
2023-11-15T18:38:28.953Z,10.06
2023-11-15T18:40:55.956Z,10.09
2023-11-15T18:43:23.063Z,10.11
2023-11-15T18:45:50.086Z,10.15
2023-11-15T18:48:17.239Z,10.07
2023-11-15T18:50:44.181Z,10.10
2023-11-15T18:53:13.758Z,10.09
2023-11-15T18:55:40.773Z,10.06
2023-11-15T18:58:08.413Z,10.07
2023-11-15T19:00:37.945Z,10.08
2023-11-15T19:03:07.042Z,10.05
2023-11-15T19:05:34.925Z,10.04
2023-11-15T19:08:02.016Z,10.05
2023-11-15T19:10:31.336Z,10.03
2023-11-15T19:12:58.317Z,9.96
2023-11-15T19:15:25.853Z,9.91
2023-11-15T19:17:53.292Z,9.84
2023-11-15T19:20:22.875Z,9.87
2023-11-15T19:22:51.517Z,9.91
2023-11-15T19:25:18.625Z,9.92
2023-11-15T19:27:46.581Z,9.82
2023-11-15T19:30:14.112Z,9.82
2023-11-15T19:32:41.498Z,9.76
2023-11-15T19:35:09.956Z,9.78
2023-11-15T19:37:37.553Z,9.73
2023-11-15T19:40:12.496Z,9.72
2023-11-15T19:42:40.031Z,9.69
2023-11-15T19:45:09.195Z,9.69
2023-11-15T19:47:36.441Z,9.76
2023-11-15T19:50:03.986Z,9.71
2023-11-15T19:52:31.119Z,9.74
2023-11-15T19:54:58.623Z,9.71
2023-11-15T19:57:27.818Z,9.66
2023-11-15T19:59:56.150Z,9.57
2023-11-15T20:02:29.206Z,9.59
2023-11-15T20:04:58.914Z,9.57
2023-11-15T20:07:27.947Z,9.56
2023-11-15T20:09:54.968Z,9.56
2023-11-15T20:12:24.594Z,9.48
2023-11-15T20:14:51.893Z,9.49
2023-11-15T20:17:18.956Z,9.56
2023-11-15T20:19:45.948Z,9.50
2023-11-15T20:22:12.893Z,9.53
2023-11-15T20:24:39.917Z,9.47
2023-11-15T20:27:07.008Z,9.48
2023-11-15T20:29:34.000Z,9.49
2023-11-15T20:32:01.004Z,9.45
2023-11-15T20:34:28.005Z,9.45
2023-11-15T20:36:55.172Z,9.45
2023-11-15T20:39:25.176Z,9.43
2023-11-15T20:41:54.491Z,9.43
2023-11-15T20:44:21.673Z,9.39
2023-11-15T20:46:49.381Z,9.40
2023-11-15T20:49:16.477Z,9.39
2023-11-15T20:51:53.196Z,9.37
2023-11-15T20:54:25.850Z,9.37
2023-11-15T20:56:53.086Z,9.38
2023-11-15T20:59:20.053Z,9.38
2023-11-15T21:01:49.761Z,9.40
2023-11-15T21:04:21.326Z,9.40
2023-11-15T21:06:49.763Z,9.37
2023-11-15T21:09:16.979Z,9.40
2023-11-15T21:11:44.619Z,9.38
2023-11-15T21:14:11.895Z,9.42
2023-11-15T21:16:40.161Z,9.43
2023-11-15T21:19:09.874Z,9.41
2023-11-15T21:21:38.369Z,9.45
2023-11-15T21:24:09.389Z,9.46
2023-11-15T21:26:36.546Z,9.45
2023-11-15T21:29:09.596Z,9.45
2023-11-15T21:31:41.005Z,9.45
2023-11-15T21:34:09.153Z,9.50
2023-11-15T21:36:38.146Z,9.48
2023-11-15T21:39:10.336Z,9.49
2023-11-15T21:41:37.441Z,9.49
2023-11-15T21:44:05.389Z,9.50
2023-11-15T21:46:32.472Z,9.50
2023-11-15T21:49:01.434Z,9.53
2023-11-15T21:51:28.614Z,9.51
2023-11-15T21:53:55.795Z,9.53
2023-11-15T21:56:22.856Z,9.52
2023-11-15T21:58:50.614Z,9.55
2023-11-15T22:01:17.621Z,9.53
2023-11-15T22:03:44.689Z,9.54
2023-11-15T22:06:12.049Z,9.56
2023-11-15T22:08:40.102Z,9.53
2023-11-15T22:11:07.628Z,9.57
2023-11-15T22:13:34.911Z,9.52
2023-11-15T22:16:01.974Z,9.57
2023-11-15T22:18:30.514Z,9.55
2023-11-15T22:20:58.440Z,9.55
2023-11-15T22:23:25.893Z,9.55
2023-11-15T22:25:53.141Z,9.55
2023-11-15T22:28:20.585Z,9.60
2023-11-15T22:30:48.213Z,9.60
2023-11-15T22:33:15.512Z,9.58
2023-11-15T22:35:49.186Z,9.58
2023-11-15T22:38:16.922Z,9.58
2023-11-15T22:40:44.123Z,9.57
2023-11-15T22:43:11.627Z,9.57
2023-11-15T22:45:38.756Z,9.58
2023-11-15T22:48:07.148Z,9.57
2023-11-15T22:50:34.197Z,9.62
2023-11-15T22:53:01.230Z,9.62
2023-11-15T22:55:28.194Z,9.62
2023-11-15T22:57:55.204Z,9.62
2023-11-15T23:00:34.965Z,9.68
2023-11-15T23:03:12.017Z,9.68
2023-11-15T23:05:41.600Z,9.67
2023-11-15T23:08:11.846Z,9.67
2023-11-15T23:10:41.565Z,9.71
2023-11-15T23:13:08.472Z,9.71
2023-11-15T23:15:35.564Z,9.69
2023-11-15T23:18:04.815Z,9.71
2023-11-15T23:20:35.136Z,9.75
2023-11-15T23:23:03.962Z,9.79
2023-11-15T23:25:31.119Z,9.77
2023-11-15T23:27:58.186Z,9.77
2023-11-15T23:30:25.786Z,9.79
2023-11-15T23:32:53.635Z,9.81
2023-11-15T23:35:21.421Z,9.79
2023-11-15T23:37:49.279Z,9.81
2023-11-15T23:40:16.653Z,9.78
2023-11-15T23:42:46.441Z,9.80
2023-11-15T23:45:15.306Z,9.79
2023-11-15T23:47:42.492Z,9.77
2023-11-15T23:50:10.399Z,9.78
2023-11-15T23:52:37.769Z,9.74
2023-11-15T23:55:05.436Z,9.74
2023-11-15T23:57:33.606Z,9.75
